sensor_id;sensor_type;location;lat;lon;timestamp;P1;durP1;ratioP1;P2;durP2;ratioP2
68108;SDS011;54893;49.864;19.084;2023-04-28T00:03:22;40.25;;;15.68;;
68108;SDS011;54893;49.864;19.084;2023-04-28T00:08:23;35.00;;;14.03;;
68108;SDS011;54893;49.864;19.084;2023-04-28T00:13:26;37.75;;;14.40;;
68108;SDS011;54893;49.864;19.084;2023-04-28T00:18:26;34.93;;;13.17;;
68108;SDS011;54893;49.864;19.084;2023-04-28T00:23:27;34.23;;;12.73;;
68108;SDS011;54893;49.864;19.084;2023-04-28T00:28:28;31.70;;;12.73;;
68108;SDS011;54893;49.864;19.084;2023-04-28T00:33:28;31.67;;;12.20;;
68108;SDS011;54893;49.864;19.084;2023-04-28T00:38:28;30.73;;;12.93;;
68108;SDS011;54893;49.864;19.084;2023-04-28T00:43:29;35.47;;;14.10;;
68108;SDS011;54893;49.864;19.084;2023-04-28T00:48:29;36.53;;;12.90;;
68108;SDS011;54893;49.864;19.084;2023-04-28T00:53:30;33.23;;;13.00;;
68108;SDS011;54893;49.864;19.084;2023-04-28T00:58:30;34.03;;;14.88;;
68108;SDS011;54893;49.864;19.084;2023-04-28T01:03:35;44.57;;;15.70;;
68108;SDS011;54893;49.864;19.084;2023-04-28T01:08:37;33.85;;;15.30;;
68108;SDS011;54893;49.864;19.084;2023-04-28T01:13:38;42.20;;;18.55;;
68108;SDS011;54893;49.864;19.084;2023-04-28T01:18:41;39.30;;;16.45;;
68108;SDS011;54893;49.864;19.084;2023-04-28T01:23:46;42.92;;;16.48;;
68108;SDS011;54893;49.864;19.084;2023-04-28T01:28:47;40.83;;;16.23;;
68108;SDS011;54893;49.864;19.084;2023-04-28T01:33:47;43.77;;;17.20;;
68108;SDS011;54893;49.864;19.084;2023-04-28T01:38:48;43.37;;;16.17;;
68108;SDS011;54893;49.864;19.084;2023-04-28T01:43:48;42.25;;;15.80;;
68108;SDS011;54893;49.864;19.084;2023-04-28T01:48:49;37.53;;;15.07;;
68108;SDS011;54893;49.864;19.084;2023-04-28T01:53:50;37.67;;;15.97;;
68108;SDS011;54893;49.864;19.084;2023-04-28T01:58:50;37.10;;;14.47;;
68108;SDS011;54893;49.864;19.084;2023-04-28T02:03:50;35.23;;;15.30;;
68108;SDS011;54893;49.864;19.084;2023-04-28T02:08:51;36.87;;;13.83;;
68108;SDS011;54893;49.864;19.084;2023-04-28T02:13:51;35.53;;;13.93;;
68108;SDS011;54893;49.864;19.084;2023-04-28T02:18:52;35.30;;;14.47;;
68108;SDS011;54893;49.864;19.084;2023-04-28T02:23:52;33.23;;;13.33;;
68108;SDS011;54893;49.864;19.084;2023-04-28T02:28:52;32.27;;;13.67;;
68108;SDS011;54893;49.864;19.084;2023-04-28T02:33:53;34.57;;;13.27;;
68108;SDS011;54893;49.864;19.084;2023-04-28T02:38:53;37.83;;;13.53;;
68108;SDS011;54893;49.864;19.084;2023-04-28T02:43:54;31.60;;;11.57;;
68108;SDS011;54893;49.864;19.084;2023-04-28T02:48:54;36.07;;;12.80;;
68108;SDS011;54893;49.864;19.084;2023-04-28T02:53:55;30.53;;;12.23;;
68108;SDS011;54893;49.864;19.084;2023-04-28T02:58:55;29.57;;;12.47;;
68108;SDS011;54893;49.864;19.084;2023-04-28T03:03:56;29.93;;;11.30;;
68108;SDS011;54893;49.864;19.084;2023-04-28T03:08:56;33.27;;;12.37;;
68108;SDS011;54893;49.864;19.084;2023-04-28T03:13:57;32.77;;;12.07;;
68108;SDS011;54893;49.864;19.084;2023-04-28T03:18:57;29.60;;;11.57;;
68108;SDS011;54893;49.864;19.084;2023-04-28T03:23:57;31.77;;;13.23;;
68108;SDS011;54893;49.864;19.084;2023-04-28T03:28:58;30.43;;;12.90;;
68108;SDS011;54893;49.864;19.084;2023-04-28T03:33:58;30.90;;;12.60;;
68108;SDS011;54893;49.864;19.084;2023-04-28T03:38:58;34.13;;;12.57;;
68108;SDS011;54893;49.864;19.084;2023-04-28T03:43:59;37.00;;;12.80;;
68108;SDS011;54893;49.864;19.084;2023-04-28T03:48:59;34.40;;;13.80;;
68108;SDS011;54893;49.864;19.084;2023-04-28T03:54:02;38.03;;;14.63;;
68108;SDS011;54893;49.864;19.084;2023-04-28T03:59:03;32.77;;;13.60;;
68108;SDS011;54893;49.864;19.084;2023-04-28T04:04:03;34.20;;;13.33;;
68108;SDS011;54893;49.864;19.084;2023-04-28T04:09:04;28.80;;;11.27;;
68108;SDS011;54893;49.864;19.084;2023-04-28T04:14:04;30.90;;;14.30;;
68108;SDS011;54893;49.864;19.084;2023-04-28T04:19:05;33.10;;;13.57;;
68108;SDS011;54893;49.864;19.084;2023-04-28T04:24:05;30.13;;;13.00;;
68108;SDS011;54893;49.864;19.084;2023-04-28T04:29:06;28.58;;;12.38;;
68108;SDS011;54893;49.864;19.084;2023-04-28T04:34:07;30.63;;;13.67;;
68108;SDS011;54893;49.864;19.084;2023-04-28T04:39:07;30.67;;;14.17;;
68108;SDS011;54893;49.864;19.084;2023-04-28T04:44:08;29.25;;;13.02;;
68108;SDS011;54893;49.864;19.084;2023-04-28T04:49:09;30.13;;;12.75;;
68108;SDS011;54893;49.864;19.084;2023-04-28T04:54:09;27.43;;;11.93;;
68108;SDS011;54893;49.864;19.084;2023-04-28T04:59:09;32.90;;;13.83;;
68108;SDS011;54893;49.864;19.084;2023-04-28T05:04:10;30.10;;;13.10;;
68108;SDS011;54893;49.864;19.084;2023-04-28T05:09:11;30.40;;;16.17;;
68108;SDS011;54893;49.864;19.084;2023-04-28T05:14:11;29.77;;;13.67;;
68108;SDS011;54893;49.864;19.084;2023-04-28T05:19:11;32.10;;;14.40;;
68108;SDS011;54893;49.864;19.084;2023-04-28T05:24:12;32.10;;;14.17;;
68108;SDS011;54893;49.864;19.084;2023-04-28T05:29:13;27.67;;;12.82;;
68108;SDS011;54893;49.864;19.084;2023-04-28T05:34:14;27.83;;;12.93;;
68108;SDS011;54893;49.864;19.084;2023-04-28T05:39:15;23.70;;;11.80;;
68108;SDS011;54893;49.864;19.084;2023-04-28T05:44:15;23.03;;;11.20;;
68108;SDS011;54893;49.864;19.084;2023-04-28T05:49:15;26.60;;;12.53;;
68108;SDS011;54893;49.864;19.084;2023-04-28T05:54:16;26.87;;;12.80;;
68108;SDS011;54893;49.864;19.084;2023-04-28T05:59:16;24.83;;;12.90;;
68108;SDS011;54893;49.864;19.084;2023-04-28T06:04:17;24.67;;;10.97;;
68108;SDS011;54893;49.864;19.084;2023-04-28T06:09:17;23.57;;;11.00;;
68108;SDS011;54893;49.864;19.084;2023-04-28T06:14:17;24.83;;;10.73;;
68108;SDS011;54893;49.864;19.084;2023-04-28T06:19:18;19.40;;;8.97;;
68108;SDS011;54893;49.864;19.084;2023-04-28T06:24:18;18.13;;;8.97;;
68108;SDS011;54893;49.864;19.084;2023-04-28T06:29:19;18.48;;;8.70;;
68108;SDS011;54893;49.864;19.084;2023-04-28T06:34:25;16.92;;;8.82;;
68108;SDS011;54893;49.864;19.084;2023-04-28T06:39:27;17.27;;;8.57;;
68108;SDS011;54893;49.864;19.084;2023-04-28T06:44:28;16.77;;;7.20;;
68108;SDS011;54893;49.864;19.084;2023-04-28T06:49:30;15.20;;;6.40;;
68108;SDS011;54893;49.864;19.084;2023-04-28T06:54:30;14.17;;;6.33;;
68108;SDS011;54893;49.864;19.084;2023-04-28T06:59:31;15.13;;;6.40;;
68108;SDS011;54893;49.864;19.084;2023-04-28T07:04:31;15.43;;;6.50;;
68108;SDS011;54893;49.864;19.084;2023-04-28T07:09:31;11.27;;;5.23;;
68108;SDS011;54893;49.864;19.084;2023-04-28T07:14:32;14.83;;;7.40;;
68108;SDS011;54893;49.864;19.084;2023-04-28T07:19:32;14.10;;;6.13;;
68108;SDS011;54893;49.864;19.084;2023-04-28T07:24:32;13.00;;;6.00;;
68108;SDS011;54893;49.864;19.084;2023-04-28T07:29:33;11.25;;;5.43;;
68108;SDS011;54893;49.864;19.084;2023-04-28T07:34:34;14.87;;;5.30;;
68108;SDS011;54893;49.864;19.084;2023-04-28T07:39:35;11.05;;;4.90;;
68108;SDS011;54893;49.864;19.084;2023-04-28T07:44:38;10.23;;;4.67;;
68108;SDS011;54893;49.864;19.084;2023-04-28T07:49:38;10.27;;;4.20;;
68108;SDS011;54893;49.864;19.084;2023-04-28T07:54:38;7.40;;;4.50;;
68108;SDS011;54893;49.864;19.084;2023-04-28T07:59:39;8.20;;;4.33;;
68108;SDS011;54893;49.864;19.084;2023-04-28T08:04:40;8.60;;;4.20;;
68108;SDS011;54893;49.864;19.084;2023-04-28T08:09:40;10.35;;;5.30;;
68108;SDS011;54893;49.864;19.084;2023-04-28T08:14:43;10.87;;;4.33;;
68108;SDS011;54893;49.864;19.084;2023-04-28T08:19:43;10.07;;;4.90;;
68108;SDS011;54893;49.864;19.084;2023-04-28T08:24:45;9.27;;;4.18;;
68108;SDS011;54893;49.864;19.084;2023-04-28T08:29:45;9.23;;;4.20;;
68108;SDS011;54893;49.864;19.084;2023-04-28T08:34:46;9.43;;;4.23;;
68108;SDS011;54893;49.864;19.084;2023-04-28T08:39:46;9.07;;;4.60;;
68108;SDS011;54893;49.864;19.084;2023-04-28T08:44:47;8.27;;;4.00;;
68108;SDS011;54893;49.864;19.084;2023-04-28T08:49:50;8.43;;;4.10;;
68108;SDS011;54893;49.864;19.084;2023-04-28T08:54:52;8.17;;;4.30;;
68108;SDS011;54893;49.864;19.084;2023-04-28T08:59:53;11.98;;;4.70;;
68108;SDS011;54893;49.864;19.084;2023-04-28T09:04:54;11.13;;;4.40;;
68108;SDS011;54893;49.864;19.084;2023-04-28T09:20:34;9.77;;;4.10;;
68108;SDS011;54893;49.864;19.084;2023-04-28T09:25:36;16.87;;;4.83;;
68108;SDS011;54893;49.864;19.084;2023-04-28T09:30:37;10.37;;;4.80;;
68108;SDS011;54893;49.864;19.084;2023-04-28T09:35:39;10.65;;;5.20;;
68108;SDS011;54893;49.864;19.084;2023-04-28T09:46:01;12.10;;;5.38;;
68108;SDS011;54893;49.864;19.084;2023-04-28T09:51:04;9.70;;;5.40;;
68108;SDS011;54893;49.864;19.084;2023-04-28T09:56:06;10.43;;;4.73;;
68108;SDS011;54893;49.864;19.084;2023-04-28T10:01:07;10.50;;;4.82;;
68108;SDS011;54893;49.864;19.084;2023-04-28T10:06:10;11.75;;;5.10;;
68108;SDS011;54893;49.864;19.084;2023-04-28T10:11:10;9.60;;;4.87;;
68108;SDS011;54893;49.864;19.084;2023-04-28T10:16:12;9.35;;;5.35;;
68108;SDS011;54893;49.864;19.084;2023-04-28T10:21:16;7.22;;;3.90;;
68108;SDS011;54893;49.864;19.084;2023-04-28T10:26:18;8.13;;;4.07;;
68108;SDS011;54893;49.864;19.084;2023-04-28T10:31:20;10.50;;;4.18;;
68108;SDS011;54893;49.864;19.084;2023-04-28T10:41:51;8.48;;;4.07;;
68108;SDS011;54893;49.864;19.084;2023-04-28T10:47:01;7.00;;;3.80;;
68108;SDS011;54893;49.864;19.084;2023-04-28T10:52:04;14.45;;;4.10;;
68108;SDS011;54893;49.864;19.084;2023-04-28T10:57:32;8.50;;;3.30;;
68108;SDS011;54893;49.864;19.084;2023-04-28T11:02:35;8.43;;;3.80;;
68108;SDS011;54893;49.864;19.084;2023-04-28T11:07:37;7.13;;;3.42;;
68108;SDS011;54893;49.864;19.084;2023-04-28T11:13:10;6.83;;;3.33;;
68108;SDS011;54893;49.864;19.084;2023-04-28T11:18:21;6.50;;;3.60;;
68108;SDS011;54893;49.864;19.084;2023-04-28T11:23:26;9.57;;;3.30;;
68108;SDS011;54893;49.864;19.084;2023-04-28T11:28:27;7.38;;;3.10;;
68108;SDS011;54893;49.864;19.084;2023-04-28T11:33:28;6.63;;;2.70;;
68108;SDS011;54893;49.864;19.084;2023-04-28T11:38:29;8.07;;;3.30;;
68108;SDS011;54893;49.864;19.084;2023-04-28T11:43:43;6.80;;;2.70;;
68108;SDS011;54893;49.864;19.084;2023-04-28T11:48:45;6.50;;;3.37;;
68108;SDS011;54893;49.864;19.084;2023-04-28T11:53:47;7.07;;;3.20;;
68108;SDS011;54893;49.864;19.084;2023-04-28T11:58:58;7.20;;;3.10;;
68108;SDS011;54893;49.864;19.084;2023-04-28T12:04:08;6.57;;;3.40;;
68108;SDS011;54893;49.864;19.084;2023-04-28T12:09:15;7.37;;;3.87;;
68108;SDS011;54893;49.864;19.084;2023-04-28T12:14:17;7.28;;;3.28;;
68108;SDS011;54893;49.864;19.084;2023-04-28T12:19:17;6.63;;;3.00;;
68108;SDS011;54893;49.864;19.084;2023-04-28T12:24:19;8.30;;;3.50;;
68108;SDS011;54893;49.864;19.084;2023-04-28T12:29:39;7.23;;;3.33;;
68108;SDS011;54893;49.864;19.084;2023-04-28T12:34:41;9.63;;;3.75;;
68108;SDS011;54893;49.864;19.084;2023-04-28T12:39:43;6.60;;;3.93;;
68108;SDS011;54893;49.864;19.084;2023-04-28T12:44:43;7.83;;;3.27;;
68108;SDS011;54893;49.864;19.084;2023-04-28T12:49:44;8.57;;;3.65;;
68108;SDS011;54893;49.864;19.084;2023-04-28T12:54:45;9.40;;;3.80;;
68108;SDS011;54893;49.864;19.084;2023-04-28T12:59:46;6.93;;;3.95;;
68108;SDS011;54893;49.864;19.084;2023-04-28T13:04:47;7.53;;;3.40;;
68108;SDS011;54893;49.864;19.084;2023-04-28T13:09:47;7.10;;;3.83;;
68108;SDS011;54893;49.864;19.084;2023-04-28T13:14:47;8.43;;;3.27;;
68108;SDS011;54893;49.864;19.084;2023-04-28T13:19:48;8.23;;;2.90;;
68108;SDS011;54893;49.864;19.084;2023-04-28T13:24:48;7.73;;;3.13;;
68108;SDS011;54893;49.864;19.084;2023-04-28T13:29:49;8.30;;;3.50;;
68108;SDS011;54893;49.864;19.084;2023-04-28T13:34:49;8.97;;;3.60;;
68108;SDS011;54893;49.864;19.084;2023-04-28T13:39:50;7.65;;;3.97;;
68108;SDS011;54893;49.864;19.084;2023-04-28T13:44:51;7.67;;;3.40;;
68108;SDS011;54893;49.864;19.084;2023-04-28T13:49:51;8.77;;;3.60;;
68108;SDS011;54893;49.864;19.084;2023-04-28T13:54:51;6.93;;;3.70;;
68108;SDS011;54893;49.864;19.084;2023-04-28T13:59:52;9.33;;;3.60;;
68108;SDS011;54893;49.864;19.084;2023-04-28T14:04:53;18.33;;;7.73;;
68108;SDS011;54893;49.864;19.084;2023-04-28T14:09:53;9.83;;;4.90;;
68108;SDS011;54893;49.864;19.084;2023-04-28T14:14:54;9.13;;;3.58;;
68108;SDS011;54893;49.864;19.084;2023-04-28T14:19:54;11.70;;;5.60;;
68108;SDS011;54893;49.864;19.084;2023-04-28T14:24:54;7.30;;;3.33;;
68108;SDS011;54893;49.864;19.084;2023-04-28T14:29:55;14.63;;;5.07;;
68108;SDS011;54893;49.864;19.084;2023-04-28T14:34:55;12.57;;;3.93;;
68108;SDS011;54893;49.864;19.084;2023-04-28T14:39:56;12.60;;;4.00;;
68108;SDS011;54893;49.864;19.084;2023-04-28T14:45:00;8.70;;;4.25;;
68108;SDS011;54893;49.864;19.084;2023-04-28T14:50:02;9.67;;;4.07;;
68108;SDS011;54893;49.864;19.084;2023-04-28T14:55:03;28.58;;;5.82;;
68108;SDS011;54893;49.864;19.084;2023-04-28T15:00:05;9.87;;;4.47;;
68108;SDS011;54893;49.864;19.084;2023-04-28T15:05:06;7.78;;;3.53;;
68108;SDS011;54893;49.864;19.084;2023-04-28T15:10:07;7.20;;;3.50;;
68108;SDS011;54893;49.864;19.084;2023-04-28T15:15:08;10.87;;;4.00;;
68108;SDS011;54893;49.864;19.084;2023-04-28T15:20:09;7.82;;;3.50;;
68108;SDS011;54893;49.864;19.084;2023-04-28T15:25:09;7.20;;;3.47;;
68108;SDS011;54893;49.864;19.084;2023-04-28T15:30:10;8.93;;;3.63;;
68108;SDS011;54893;49.864;19.084;2023-04-28T15:35:11;8.18;;;3.60;;
68108;SDS011;54893;49.864;19.084;2023-04-28T15:40:15;11.63;;;4.00;;
68108;SDS011;54893;49.864;19.084;2023-04-28T15:45:17;11.13;;;3.80;;
68108;SDS011;54893;49.864;19.084;2023-04-28T15:50:18;10.53;;;3.90;;
68108;SDS011;54893;49.864;19.084;2023-04-28T15:55:21;30.30;;;5.35;;
68108;SDS011;54893;49.864;19.084;2023-04-28T16:00:22;9.33;;;4.60;;
68108;SDS011;54893;49.864;19.084;2023-04-28T16:05:23;9.65;;;4.57;;
68108;SDS011;54893;49.864;19.084;2023-04-28T16:10:24;14.05;;;5.28;;
68108;SDS011;54893;49.864;19.084;2023-04-28T16:15:24;12.33;;;5.53;;
68108;SDS011;54893;49.864;19.084;2023-04-28T16:20:24;15.90;;;5.80;;
68108;SDS011;54893;49.864;19.084;2023-04-28T16:25:25;16.27;;;7.63;;
68108;SDS011;54893;49.864;19.084;2023-04-28T16:30:25;28.10;;;8.63;;
68108;SDS011;54893;49.864;19.084;2023-04-28T16:35:26;14.53;;;5.43;;
68108;SDS011;54893;49.864;19.084;2023-04-28T16:40:26;26.00;;;6.30;;
68108;SDS011;54893;49.864;19.084;2023-04-28T16:45:27;12.38;;;5.45;;
68108;SDS011;54893;49.864;19.084;2023-04-28T16:50:28;14.73;;;5.90;;
68108;SDS011;54893;49.864;19.084;2023-04-28T16:55:28;11.40;;;6.13;;
68108;SDS011;54893;49.864;19.084;2023-04-28T17:00:29;13.13;;;6.10;;
68108;SDS011;54893;49.864;19.084;2023-04-28T17:05:32;13.77;;;6.13;;
68108;SDS011;54893;49.864;19.084;2023-04-28T17:10:35;11.02;;;6.03;;
68108;SDS011;54893;49.864;19.084;2023-04-28T17:15:36;15.75;;;6.60;;
68108;SDS011;54893;49.864;19.084;2023-04-28T17:20:38;32.70;;;11.03;;
68108;SDS011;54893;49.864;19.084;2023-04-28T17:25:38;26.35;;;11.57;;
68108;SDS011;54893;49.864;19.084;2023-04-28T17:30:39;19.40;;;10.13;;
68108;SDS011;54893;49.864;19.084;2023-04-28T17:35:40;20.33;;;9.25;;
68108;SDS011;54893;49.864;19.084;2023-04-28T17:40:40;22.50;;;8.67;;
68108;SDS011;54893;49.864;19.084;2023-04-28T17:45:43;23.10;;;9.00;;
68108;SDS011;54893;49.864;19.084;2023-04-28T17:50:44;20.07;;;10.40;;
68108;SDS011;54893;49.864;19.084;2023-04-28T17:55:44;22.43;;;10.10;;
68108;SDS011;54893;49.864;19.084;2023-04-28T18:00:44;25.00;;;10.63;;
68108;SDS011;54893;49.864;19.084;2023-04-28T18:05:45;57.93;;;11.73;;
68108;SDS011;54893;49.864;19.084;2023-04-28T18:10:45;27.30;;;10.53;;
68108;SDS011;54893;49.864;19.084;2023-04-28T18:15:46;28.00;;;10.83;;
68108;SDS011;54893;49.864;19.084;2023-04-28T18:20:46;22.80;;;9.80;;
68108;SDS011;54893;49.864;19.084;2023-04-28T18:25:47;20.33;;;9.07;;
68108;SDS011;54893;49.864;19.084;2023-04-28T18:30:47;18.53;;;9.67;;
68108;SDS011;54893;49.864;19.084;2023-04-28T18:35:48;19.10;;;10.13;;
68108;SDS011;54893;49.864;19.084;2023-04-28T18:40:48;18.87;;;8.50;;
68108;SDS011;54893;49.864;19.084;2023-04-28T18:45:49;18.42;;;8.77;;
68108;SDS011;54893;49.864;19.084;2023-04-28T18:50:49;14.07;;;6.17;;
68108;SDS011;54893;49.864;19.084;2023-04-28T18:55:52;17.67;;;7.20;;
68108;SDS011;54893;49.864;19.084;2023-04-28T19:00:52;21.23;;;8.50;;
68108;SDS011;54893;49.864;19.084;2023-04-28T19:05:53;23.27;;;8.37;;
68108;SDS011;54893;49.864;19.084;2023-04-28T19:10:56;20.33;;;8.83;;
68108;SDS011;54893;49.864;19.084;2023-04-28T19:15:56;32.72;;;14.00;;
68108;SDS011;54893;49.864;19.084;2023-04-28T19:20:58;39.83;;;18.70;;
68108;SDS011;54893;49.864;19.084;2023-04-28T19:26:01;31.40;;;16.13;;
68108;SDS011;54893;49.864;19.084;2023-04-28T19:31:02;40.30;;;19.38;;
68108;SDS011;54893;49.864;19.084;2023-04-28T19:36:05;33.28;;;14.90;;
68108;SDS011;54893;49.864;19.084;2023-04-28T19:41:08;37.90;;;14.25;;
68108;SDS011;54893;49.864;19.084;2023-04-28T19:46:09;33.83;;;11.93;;
68108;SDS011;54893;49.864;19.084;2023-04-28T19:51:09;41.47;;;13.63;;
68108;SDS011;54893;49.864;19.084;2023-04-28T19:56:10;52.43;;;17.47;;
68108;SDS011;54893;49.864;19.084;2023-04-28T20:01:10;76.77;;;28.50;;
68108;SDS011;54893;49.864;19.084;2023-04-28T20:06:14;160.37;;;60.17;;
68108;SDS011;54893;49.864;19.084;2023-04-28T20:11:16;57.17;;;21.58;;
68108;SDS011;54893;49.864;19.084;2023-04-28T20:16:16;47.47;;;20.50;;
68108;SDS011;54893;49.864;19.084;2023-04-28T20:21:19;48.97;;;19.83;;
68108;SDS011;54893;49.864;19.084;2023-04-28T20:26:19;38.50;;;17.67;;
68108;SDS011;54893;49.864;19.084;2023-04-28T20:31:20;42.60;;;17.80;;
68108;SDS011;54893;49.864;19.084;2023-04-28T20:36:21;45.92;;;18.98;;
68108;SDS011;54893;49.864;19.084;2023-04-28T20:41:22;33.90;;;16.17;;
68108;SDS011;54893;49.864;19.084;2023-04-28T20:46:22;31.37;;;14.50;;
68108;SDS011;54893;49.864;19.084;2023-04-28T20:51:23;28.60;;;13.97;;
68108;SDS011;54893;49.864;19.084;2023-04-28T20:56:23;30.90;;;13.57;;
68108;SDS011;54893;49.864;19.084;2023-04-28T21:01:24;23.67;;;12.27;;
68108;SDS011;54893;49.864;19.084;2023-04-28T21:06:24;22.07;;;10.77;;
68108;SDS011;54893;49.864;19.084;2023-04-28T21:11:24;21.77;;;9.73;;
68108;SDS011;54893;49.864;19.084;2023-04-28T21:16:25;22.25;;;10.02;;
68108;SDS011;54893;49.864;19.084;2023-04-28T21:21:26;22.10;;;9.83;;
68108;SDS011;54893;49.864;19.084;2023-04-28T21:26:26;19.07;;;8.60;;
68108;SDS011;54893;49.864;19.084;2023-04-28T21:31:27;19.83;;;8.20;;
68108;SDS011;54893;49.864;19.084;2023-04-28T21:36:27;15.43;;;6.37;;
68108;SDS011;54893;49.864;19.084;2023-04-28T21:41:27;12.83;;;6.30;;
68108;SDS011;54893;49.864;19.084;2023-04-28T21:46:28;12.37;;;6.03;;
68108;SDS011;54893;49.864;19.084;2023-04-28T21:51:28;13.60;;;6.10;;
68108;SDS011;54893;49.864;19.084;2023-04-28T21:56:29;15.30;;;6.70;;
68108;SDS011;54893;49.864;19.084;2023-04-28T22:01:29;15.83;;;6.87;;
68108;SDS011;54893;49.864;19.084;2023-04-28T22:06:31;11.82;;;6.10;;
68108;SDS011;54893;49.864;19.084;2023-04-28T22:11:31;11.00;;;5.37;;
68108;SDS011;54893;49.864;19.084;2023-04-28T22:16:32;12.00;;;5.20;;
68108;SDS011;54893;49.864;19.084;2023-04-28T22:21:32;11.10;;;5.37;;
68108;SDS011;54893;49.864;19.084;2023-04-28T22:26:36;9.27;;;5.10;;
68108;SDS011;54893;49.864;19.084;2023-04-28T22:31:36;10.70;;;4.97;;
68108;SDS011;54893;49.864;19.084;2023-04-28T22:36:36;10.10;;;4.70;;
68108;SDS011;54893;49.864;19.084;2023-04-28T22:41:37;11.03;;;4.90;;
68108;SDS011;54893;49.864;19.084;2023-04-28T22:46:37;8.90;;;4.37;;
68108;SDS011;54893;49.864;19.084;2023-04-28T22:51:38;10.00;;;4.43;;
68108;SDS011;54893;49.864;19.084;2023-04-28T22:56:38;10.03;;;4.60;;
68108;SDS011;54893;49.864;19.084;2023-04-28T23:01:38;8.90;;;4.43;;
68108;SDS011;54893;49.864;19.084;2023-04-28T23:06:39;10.57;;;4.80;;
68108;SDS011;54893;49.864;19.084;2023-04-28T23:11:40;11.60;;;4.97;;
68108;SDS011;54893;49.864;19.084;2023-04-28T23:16:40;9.13;;;4.53;;
68108;SDS011;54893;49.864;19.084;2023-04-28T23:21:41;12.43;;;4.80;;
68108;SDS011;54893;49.864;19.084;2023-04-28T23:26:41;10.67;;;4.60;;
68108;SDS011;54893;49.864;19.084;2023-04-28T23:31:41;8.63;;;4.70;;
68108;SDS011;54893;49.864;19.084;2023-04-28T23:36:42;10.20;;;4.47;;
68108;SDS011;54893;49.864;19.084;2023-04-28T23:41:42;9.90;;;4.93;;
68108;SDS011;54893;49.864;19.084;2023-04-28T23:46:42;9.90;;;4.50;;
68108;SDS011;54893;49.864;19.084;2023-04-28T23:51:43;9.30;;;4.70;;
68108;SDS011;54893;49.864;19.084;2023-04-28T23:56:43;8.47;;;4.60;;
